Time;durP1;ratioP1;P1;durP2;ratioP2;P2;SDS_P1;SDS_P2;PMS_P1;PMS_P2;Temp;Humidity;BMP_temperature;BMP_pressure;BME280_temperature;BME280_humidity;BME280_pressure;Samples;Min_cycle;Max_cycle;Signal;HPM_P1;HPM_P2
2022/03/23 00:01:39;;;;;;;;;17.33;15.67;;;;;9.52;44.63;100550.25;5015354;28;45573;-73
2022/03/23 00:04:05;;;;;;;;;14.67;14.00;;;;;9.46;45.05;100559.09;5016118;28;45335;-73
2022/03/23 00:06:31;;;;;;;;;16.67;14.00;;;;;9.42;45.36;100550.34;5015061;28;46393;-73
2022/03/23 00:09:00;;;;;;;;;20.00;17.67;;;;;9.42;45.29;100552.13;5015788;28;45454;-73
2022/03/23 00:11:27;;;;;;;;;19.00;18.33;;;;;9.40;45.23;100556.53;4999154;28;45456;-73
2022/03/23 00:13:54;;;;;;;;;18.33;17.00;;;;;9.39;45.40;100558.28;5013387;28;45470;-73
2022/03/23 00:16:23;;;;;;;;;18.33;15.00;;;;;9.37;45.45;100551.31;5013527;28;46220;-72
2022/03/23 00:18:48;;;;;;;;;19.33;16.33;;;;;9.35;45.66;100555.72;5013108;28;45380;-72
2022/03/23 00:21:20;;;;;;;;;15.33;14.67;;;;;9.33;45.48;100568.91;5013640;28;45520;-72
2022/03/23 00:23:46;;;;;;;;;21.67;18.67;;;;;9.31;45.48;100565.41;5016031;28;45368;-72
2022/03/23 00:26:12;;;;;;;;;20.33;19.00;;;;;9.30;45.67;100568.94;5013743;28;45492;-73
2022/03/23 00:28:38;;;;;;;;;21.67;18.67;;;;;9.28;45.67;100562.81;5015676;28;45431;-72
2022/03/23 00:31:03;;;;;;;;;16.33;16.33;;;;;9.26;45.73;100569.84;5015058;28;45367;-72
2022/03/23 00:33:29;;;;;;;;;18.33;17.67;;;;;9.24;45.55;100576.88;5011190;28;45561;-72
2022/03/23 00:35:55;;;;;;;;;22.33;18.00;;;;;9.22;45.86;100568.13;5000991;28;47150;-72
2022/03/23 00:38:21;;;;;;;;;20.00;18.67;;;;;9.20;45.98;100569.94;5013328;28;45523;-72
2022/03/23 00:40:46;;;;;;;;;19.00;19.00;;;;;9.19;46.30;100564.69;5014608;28;45698;-72
2022/03/23 00:43:13;;;;;;;;;19.00;17.67;;;;;9.15;46.39;100569.13;5014776;28;45583;-72
2022/03/23 00:45:40;;;;;;;;;22.67;19.33;;;;;9.14;46.36;100569.13;5030087;28;47023;-72
2022/03/23 00:48:05;;;;;;;;;18.33;16.00;;;;;9.10;46.42;100574.41;5015550;28;45501;-72
2022/03/23 00:50:31;;;;;;;;;19.00;16.00;;;;;9.08;46.49;100570.94;5015243;28;45331;-72
2022/03/23 00:52:56;;;;;;;;;22.33;21.00;;;;;9.06;46.63;100572.69;5015114;28;45555;-72
2022/03/23 00:55:22;;;;;;;;;17.67;16.00;;;;;9.05;46.80;100577.97;5015597;28;46067;-72
2022/03/23 00:57:48;;;;;;;;;17.67;15.67;;;;;9.05;46.31;100575.34;5014688;28;45477;-72
2022/03/23 01:00:17;;;;;;;;;17.00;12.67;;;;;9.01;46.98;100571.91;5014632;28;45436;-72
2022/03/23 01:02:44;;;;;;;;;20.00;16.33;;;;;8.97;47.04;100574.56;5014651;28;45310;-72
2022/03/23 01:05:12;;;;;;;;;24.67;22.67;;;;;8.94;46.97;100575.47;5013923;28;47931;-72
2022/03/23 01:07:38;;;;;;;;;18.00;17.33;;;;;8.91;46.77;100575.50;5014393;28;45516;-73
2022/03/23 01:10:05;;;;;;;;;18.33;16.67;;;;;8.88;46.93;100574.69;5015011;28;45448;-72
2022/03/23 01:12:30;;;;;;;;;23.00;19.00;;;;;8.85;47.43;100575.56;5014544;28;45454;-72
2022/03/23 01:14:56;;;;;;;;;19.67;19.33;;;;;8.82;47.44;100577.34;5015124;28;46033;-72
2022/03/23 01:17:21;;;;;;;;;17.67;16.67;;;;;8.78;47.80;100576.50;5015108;28;45354;-72
2022/03/23 01:19:47;;;;;;;;;22.33;19.67;;;;;8.75;47.48;100571.28;5015200;28;45295;-73
2022/03/23 01:22:13;;;;;;;;;12.33;9.00;;;;;8.73;47.74;100573.03;5013423;28;45622;-72
2022/03/23 01:24:38;;;;;;;;;18.00;17.67;;;;;8.70;47.78;100570.47;5013565;28;48365;-72
2022/03/23 01:27:03;;;;;;;;;21.67;20.33;;;;;8.69;47.46;100568.72;5015027;28;45441;-72
2022/03/23 01:29:30;;;;;;;;;18.33;17.33;;;;;8.69;47.17;100571.34;5014341;28;45544;-72
2022/03/23 01:31:56;;;;;;;;;20.67;17.33;;;;;8.68;47.70;100566.97;5014964;28;45382;-72
2022/03/23 01:34:21;;;;;;;;;22.67;20.33;;;;;8.66;47.60;100564.34;5014736;28;46186;-72
2022/03/23 01:36:47;;;;;;;;;20.67;18.00;;;;;8.66;47.32;100567.00;5014791;28;45172;-72
2022/03/23 01:39:12;;;;;;;;;16.00;15.67;;;;;8.66;47.57;100566.13;5015187;28;45396;-72
2022/03/23 01:41:40;;;;;;;;;12.00;12.00;;;;;8.67;47.46;100562.59;5015011;28;45488;-73
2022/03/23 01:44:12;;;;;;;;;15.33;15.33;;;;;8.67;47.64;100568.72;4996933;28;47009;-72
2022/03/23 01:46:37;;;;;;;;;24.33;21.00;;;;;8.68;47.63;100559.09;5014419;28;45363;-72
2022/03/23 01:49:03;;;;;;;;;23.33;21.00;;;;;8.68;47.81;100559.97;5015092;28;45379;-72
2022/03/23 01:51:28;;;;;;;;;24.00;22.00;;;;;8.69;47.63;100561.72;5013986;28;45509;-72
2022/03/23 01:53:53;;;;;;;;;22.33;21.00;;;;;8.71;47.82;100561.69;5014576;28;45451;-73
2022/03/23 01:56:19;;;;;;;;;29.67;24.33;;;;;8.72;47.91;100563.41;5007727;28;45559;-72
2022/03/23 01:58:44;;;;;;;;;23.33;22.33;;;;;8.72;47.55;100560.78;5014442;28;45421;-72
2022/03/23 02:01:11;;;;;;;;;25.00;24.67;;;;;8.69;47.82;100555.56;5014179;28;45564;-73
2022/03/23 02:03:39;;;;;;;;;28.33;26.67;;;;;8.68;48.05;100565.22;5013514;28;46388;-73
2022/03/23 02:06:05;;;;;;;;;33.33;31.00;;;;;8.66;48.01;100561.72;5012552;28;45451;-73
2022/03/23 02:08:30;;;;;;;;;31.33;26.00;;;;;8.65;48.23;100559.97;5014958;28;45787;-73
2022/03/23 02:10:55;;;;;;;;;32.67;29.33;;;;;8.62;48.36;100570.53;5013920;28;45307;-73
2022/03/23 02:13:21;;;;;;;;;29.67;25.33;;;;;8.59;48.04;100567.03;5014144;28;46023;-73
2022/03/23 02:15:47;;;;;;;;;32.33;28.00;;;;;8.54;48.23;100567.09;5014149;28;45371;-73
2022/03/23 02:18:12;;;;;;;;;28.00;27.33;;;;;8.50;48.27;100568.00;5014742;28;45485;-73
2022/03/23 02:20:37;;;;;;;;;27.00;26.67;;;;;8.47;48.45;100570.66;4996188;28;45422;-73
2022/03/23 02:23:03;;;;;;;;;35.00;27.67;;;;;8.44;48.59;100573.31;4996398;28;46275;-73
2022/03/23 02:25:29;;;;;;;;;22.00;18.67;;;;;8.42;48.29;100568.94;5013713;28;45498;-73
2022/03/23 02:27:55;;;;;;;;;30.33;24.33;;;;;8.39;48.58;100572.47;5029242;28;45394;-74
2022/03/23 02:30:22;;;;;;;;;33.33;31.33;;;;;8.35;48.78;100570.75;4996287;28;45435;-73
2022/03/23 02:32:47;;;;;;;;;24.67;24.67;;;;;8.30;48.72;100565.50;5013417;28;45525;-73
2022/03/23 02:35:14;;;;;;;;;28.67;25.67;;;;;8.27;48.61;100577.78;5014496;28;45580;-73
2022/03/23 02:37:39;;;;;;;;;33.33;27.33;;;;;8.24;48.65;100573.41;5013799;28;45443;-73
2022/03/23 02:40:06;;;;;;;;;35.00;29.33;;;;;8.20;49.03;100573.47;5013723;28;45373;-73
2022/03/23 02:42:31;;;;;;;;;26.33;22.00;;;;;8.15;49.21;100576.13;5017054;28;45573;-73
2022/03/23 02:44:57;;;;;;;;;34.00;29.33;;;;;8.11;48.97;100570.91;5017406;28;45458;-73
2022/03/23 02:47:22;;;;;;;;;31.00;26.33;;;;;8.06;49.13;100573.53;5017484;28;45449;-73
2022/03/23 02:49:48;;;;;;;;;32.33;29.67;;;;;8.00;49.17;100573.59;5016385;28;45399;-74
2022/03/23 02:52:13;;;;;;;;;31.33;30.33;;;;;7.96;49.00;100580.63;5011700;28;46343;-73
2022/03/23 03:03:14;;;;;;;;;27.67;25.67;;;;;7.78;49.52;100580.72;5016899;28;45433;-73
2022/03/23 03:05:40;;;;;;;;;26.33;24.67;;;;;7.72;49.70;100576.38;5016387;28;45598;-73
2022/03/23 03:10:49;;;;;;;;;33.00;29.00;;;;;7.68;49.84;100589.53;5016676;28;45450;-73
2022/03/23 03:13:14;;;;;;;;;28.33;24.67;;;;;7.67;50.02;100585.19;5016727;28;45912;-73
2022/03/23 03:15:40;;;;;;;;;34.00;25.33;;;;;7.64;49.30;100586.06;5015246;28;45536;-74
2022/03/23 03:18:05;;;;;;;;;27.67;23.00;;;;;7.58;49.75;100586.06;4999521;28;45447;-74
2022/03/23 03:20:31;;;;;;;;;23.00;19.67;;;;;7.55;50.09;100587.81;5015493;28;45268;-74
2022/03/23 03:22:57;;;;;;;;;32.33;29.33;;;;;7.54;49.88;100591.38;5016024;28;46528;-73
2022/03/23 03:25:23;;;;;;;;;23.67;23.67;;;;;7.50;49.73;100592.25;4998795;28;45365;-73
2022/03/23 03:27:48;;;;;;;;;29.67;28.00;;;;;7.46;50.07;100587.88;4998319;28;45359;-74
2022/03/23 03:30:16;;;;;;;;;32.33;29.67;;;;;7.43;50.07;100598.38;5016857;28;45426;-74
2022/03/23 03:32:43;;;;;;;;;33.33;29.00;;;;;7.40;50.06;100599.25;5015937;28;45417;-74
2022/03/23 03:35:09;;;;;;;;;31.67;29.67;;;;;7.38;50.29;100597.53;5016715;28;45511;-73
2022/03/23 03:37:35;;;;;;;;;28.00;22.00;;;;;7.34;49.87;100599.31;5016060;28;45502;-73
2022/03/23 03:40:03;;;;;;;;;33.00;27.67;;;;;7.30;50.20;100603.69;5016547;28;45378;-74
2022/03/23 03:42:29;;;;;;;;;24.00;19.67;;;;;7.27;50.24;100606.31;5015989;28;46350;-73
2022/03/23 03:44:54;;;;;;;;;32.00;28.00;;;;;7.25;50.15;100605.44;5016204;28;45371;-73
2022/03/23 03:47:20;;;;;;;;;32.67;30.33;;;;;7.21;50.74;100602.81;5015892;28;45354;-74
2022/03/23 03:49:49;;;;;;;;;37.00;31.67;;;;;7.17;50.83;100607.22;5016079;28;45477;-74
2022/03/23 03:52:15;;;;;;;;;30.33;29.00;;;;;7.13;51.38;100605.47;5013619;28;47962;-74
2022/03/23 03:54:40;;;;;;;;;26.00;24.00;;;;;7.11;50.90;100606.34;4998259;28;45461;-73
2022/03/23 03:57:07;;;;;;;;;28.33;26.67;;;;;7.10;51.22;100609.84;4998220;28;45459;-73
2022/03/23 03:59:34;;;;;;;;;27.33;26.00;;;;;7.09;51.09;100606.34;4998630;28;45478;-73
2022/03/23 04:02:00;;;;;;;;;23.00;20.33;;;;;7.07;51.00;100609.84;5014435;28;45469;-73
2022/03/23 04:04:26;;;;;;;;;27.00;25.67;;;;;7.05;51.04;100612.47;5014804;28;45364;-73
2022/03/23 04:06:51;;;;;;;;;28.00;27.67;;;;;7.04;51.04;100612.50;5015941;28;45350;-73
2022/03/23 04:09:17;;;;;;;;;31.33;28.00;;;;;7.03;51.04;100610.75;5016380;28;45319;-74
2022/03/23 04:11:42;;;;;;;;;30.33;24.33;;;;;7.02;51.01;100620.38;5015091;28;45593;-74
2022/03/23 04:14:08;;;;;;;;;27.33;23.67;;;;;7.02;51.25;100615.13;5015825;28;45430;-73
2022/03/23 04:16:33;;;;;;;;;32.00;30.00;;;;;7.03;51.45;100616.00;5014537;28;45434;-73
2022/03/23 04:19:00;;;;;;;;;30.33;27.00;;;;;7.02;51.53;100622.13;4998195;28;45542;-72
2022/03/23 04:21:25;;;;;;;;;33.00;26.00;;;;;7.01;51.37;100613.38;5015864;28;46395;-73
2022/03/23 04:23:50;;;;;;;;;30.67;26.67;;;;;6.98;50.91;100613.38;5015671;28;45363;-73
2022/03/23 04:26:16;;;;;;;;;27.67;27.67;;;;;6.94;50.87;100622.13;5015724;28;45303;-73
2022/03/23 04:28:41;;;;;;;;;26.33;26.00;;;;;6.88;51.42;100616.88;5014564;28;45371;-73
2022/03/23 04:31:07;;;;;;;;;29.00;29.00;;;;;6.85;51.65;100627.38;5015907;28;46354;-73
2022/03/23 04:33:33;;;;;;;;;30.00;27.67;;;;;6.82;51.70;100627.38;5015673;28;45546;-73
2022/03/23 04:35:59;;;;;;;;;27.33;23.67;;;;;6.76;51.77;100627.38;5015105;28;45435;-73
2022/03/23 04:38:26;;;;;;;;;31.33;28.33;;;;;6.72;52.55;100629.13;5015559;28;45465;-73
2022/03/23 04:40:52;;;;;;;;;30.67;27.33;;;;;6.66;52.40;100623.91;5013747;28;46587;-73
2022/03/23 04:43:17;;;;;;;;;30.00;26.33;;;;;6.59;52.47;100627.38;5014558;28;45410;-73
2022/03/23 04:45:43;;;;;;;;;30.67;26.33;;;;;6.54;52.65;100631.72;4997755;28;45330;-72
2022/03/23 04:48:08;;;;;;;;;31.00;30.00;;;;;6.49;52.89;100626.50;5015873;28;45631;-73
2022/03/23 04:50:34;;;;;;;;;31.00;24.67;;;;;6.45;53.04;100631.75;5011066;28;48108;-73
2022/03/23 04:52:59;;;;;;;;;30.33;29.33;;;;;6.40;53.24;100636.97;5015268;28;45520;-73
2022/03/23 04:55:25;;;;;;;;;28.00;26.00;;;;;6.38;52.92;100640.44;5014217;28;45434;-73
2022/03/23 04:57:50;;;;;;;;;32.00;27.00;;;;;6.39;53.17;100639.56;5012991;28;45580;-73
2022/03/23 05:00:17;;;;;;;;;30.00;25.67;;;;;6.41;52.92;100638.72;5015592;28;45923;-73
2022/03/23 05:02:45;;;;;;;;;33.67;27.67;;;;;6.42;52.82;100647.44;5015143;28;45528;-73
2022/03/23 05:05:11;;;;;;;;;26.33;22.67;;;;;6.42;52.55;100644.81;5015255;28;45575;-73
2022/03/23 05:07:37;;;;;;;;;33.33;28.67;;;;;6.41;52.77;100649.19;5012879;28;45721;-73
2022/03/23 05:10:03;;;;;;;;;33.67;29.67;;;;;6.42;52.91;100647.44;5014966;28;46432;-73
2022/03/23 05:12:29;;;;;;;;;37.00;32.00;;;;;6.41;53.02;100648.31;5014782;28;45415;-73
2022/03/23 05:14:54;;;;;;;;;32.33;31.00;;;;;6.40;53.16;100652.69;5014834;28;45422;-73
2022/03/23 05:17:20;;;;;;;;;23.33;23.33;;;;;6.42;52.63;100660.53;5014471;28;45441;-73
2022/03/23 05:19:46;;;;;;;;;28.67;26.67;;;;;6.41;52.80;100657.06;5029592;28;46892;-73
2022/03/23 05:22:12;;;;;;;;;30.67;26.33;;;;;6.40;52.91;100652.69;5014207;28;45397;-73
2022/03/23 05:24:38;;;;;;;;;31.33;28.33;;;;;6.39;52.81;100650.06;5014988;28;45390;-73
2022/03/23 05:27:03;;;;;;;;;33.33;30.67;;;;;6.40;53.06;100654.44;5014671;28;45411;-73
2022/03/23 05:29:29;;;;;;;;;34.33;30.33;;;;;6.40;53.07;100651.81;4997096;28;47896;-73
2022/03/23 05:31:54;;;;;;;;;28.67;21.33;;;;;6.39;53.28;100655.28;5014303;28;45329;-73
2022/03/23 05:34:20;;;;;;;;;29.67;22.67;;;;;6.39;53.13;100653.56;5014552;28;45312;-73
2022/03/23 05:36:46;;;;;;;;;32.67;28.67;;;;;6.40;53.41;100655.31;5013122;28;45496;-73
2022/03/23 05:39:12;;;;;;;;;29.00;26.33;;;;;6.41;53.07;100654.44;5014759;28;46484;-73
2022/03/23 05:41:38;;;;;;;;;33.00;31.00;;;;;6.42;53.26;100650.06;5005633;28;45415;-73
2022/03/23 05:44:05;;;;;;;;;34.67;28.67;;;;;6.43;53.25;100652.69;4999714;28;45487;-73
2022/03/23 05:46:30;;;;;;;;;33.67;30.00;;;;;6.43;53.02;100662.28;5008707;28;45596;-73
2022/03/23 05:48:56;;;;;;;;;34.33;28.33;;;;;6.44;53.29;100658.81;5012845;28;46208;-73
2022/03/23 05:51:23;;;;;;;;;35.33;28.67;;;;;6.46;53.69;100665.81;5010329;28;45917;-73
2022/03/23 05:53:49;;;;;;;;;37.67;33.00;;;;;6.46;53.85;100662.31;4995624;28;45394;-72
2022/03/23 05:56:14;;;;;;;;;32.33;29.67;;;;;6.48;53.79;100661.44;5014090;28;45391;-65
2022/03/23 05:58:40;;;;;;;;;41.67;36.67;;;;;6.54;53.38;100657.94;5014455;28;46293;-66
2022/03/23 06:01:06;;;;;;;;;35.33;27.00;;;;;6.59;53.45;100661.44;5012379;28;45335;-66
2022/03/23 06:03:31;;;;;;;;;34.67;28.00;;;;;6.62;53.11;100656.22;5014701;28;45379;-66
2022/03/23 06:05:57;;;;;;;;;30.00;23.33;;;;;6.62;52.45;100658.81;4995857;28;45487;-65
2022/03/23 06:08:22;;;;;;;;;31.33;29.00;;;;;6.59;52.64;100662.31;5012546;28;47253;-66
2022/03/23 06:10:48;;;;;;;;;37.00;31.33;;;;;6.59;52.80;100666.69;5012048;28;45333;-67
2022/03/23 06:13:14;;;;;;;;;29.00;28.00;;;;;6.60;52.58;100677.16;5014141;28;45490;-65
2022/03/23 06:15:40;;;;;;;;;39.67;31.00;;;;;6.63;52.71;100681.53;5013578;28;45457;-66
2022/03/23 06:18:05;;;;;;;;;37.00;26.67;;;;;6.65;52.85;100669.31;5017158;28;45967;-65
2022/03/23 06:20:31;;;;;;;;;38.67;33.00;;;;;6.70;52.62;100677.19;5016544;28;45381;-65
2022/03/23 06:22:56;;;;;;;;;39.33;30.33;;;;;6.73;52.34;100678.03;5014292;28;45343;-66
2022/03/23 06:25:24;;;;;;;;;35.33;28.00;;;;;6.77;52.33;100676.28;5017045;28;45445;-67
2022/03/23 06:27:50;;;;;;;;;32.00;27.00;;;;;6.77;52.32;100676.28;5016436;28;45883;-67
2022/03/23 06:30:15;;;;;;;;;27.33;26.67;;;;;6.80;52.26;100679.78;5017048;28;45476;-66
2022/03/23 06:32:41;;;;;;;;;35.00;32.33;;;;;6.82;52.31;100678.06;5016804;28;45396;-67
2022/03/23 06:35:07;;;;;;;;;36.00;28.67;;;;;6.89;52.12;100679.78;4999982;28;45655;-67
2022/03/23 06:37:32;;;;;;;;;36.33;31.67;;;;;6.94;52.27;100679.78;4990269;28;47049;-67
2022/03/23 06:39:58;;;;;;;;;39.00;35.33;;;;;6.99;52.02;100678.91;5016656;28;45642;-66
2022/03/23 06:42:23;;;;;;;;;34.00;30.67;;;;;7.05;52.02;100682.41;5015526;28;45512;-66
2022/03/23 06:44:50;;;;;;;;;39.33;34.67;;;;;7.10;51.73;100678.03;5016748;28;45473;-66
2022/03/23 06:47:15;;;;;;;;;39.67;34.00;;;;;7.12;51.64;100682.41;5016258;28;46496;-66
2022/03/23 06:49:41;;;;;;;;;37.00;31.00;;;;;7.15;51.81;100678.91;5016412;28;45430;-66
2022/03/23 06:52:07;;;;;;;;;38.00;35.00;;;;;7.17;51.72;100678.03;5031092;28;45502;-66
2022/03/23 06:54:33;;;;;;;;;40.00;35.33;;;;;7.21;51.64;100685.00;5015144;28;45500;-67
2022/03/23 06:56:58;;;;;;;;;35.67;26.67;;;;;7.25;51.48;100676.25;5015888;28;45437;-67
2022/03/23 06:59:24;;;;;;;;;38.00;30.67;;;;;7.29;51.64;100678.00;5016702;28;45409;-65
2022/03/23 07:01:50;;;;;;;;;37.67;34.67;;;;;7.32;51.47;100675.38;4998332;28;45481;-65
2022/03/23 07:04:16;;;;;;;;;36.67;33.00;;;;;7.36;51.60;100678.88;5016316;28;45458;-65
2022/03/23 07:06:42;;;;;;;;;36.00;33.00;;;;;7.39;51.49;100685.84;5013920;28;47095;-66
2022/03/23 07:11:52;;;;;;;;;37.67;34.00;;;;;7.45;51.26;100684.09;5006106;28;45478;-66
2022/03/23 07:14:17;;;;;;;;;27.00;27.00;;;;;7.49;51.22;100684.97;5016580;28;45482;-66
2022/03/23 07:16:43;;;;;;;;;27.67;25.67;;;;;7.55;51.23;100690.19;5015414;28;45384;-66
2022/03/23 07:19:08;;;;;;;;;42.67;37.00;;;;;7.60;51.55;100691.03;5014401;28;45419;-66
2022/03/23 07:21:34;;;;;;;;;39.33;32.33;;;;;7.65;51.21;100691.91;5015342;28;45488;-66
2022/03/23 07:23:59;;;;;;;;;42.00;36.67;;;;;7.70;51.09;100688.41;5016288;28;45390;-65
2022/03/23 07:26:25;;;;;;;;;35.67;31.00;;;;;7.74;51.25;100689.25;5014766;28;46092;-66
2022/03/23 07:28:50;;;;;;;;;42.00;33.33;;;;;7.79;51.08;100697.13;5003211;28;45473;-66
2022/03/23 07:31:16;;;;;;;;;43.00;35.67;;;;;7.85;51.21;100694.47;5015231;28;45489;-66
2022/03/23 07:33:41;;;;;;;;;33.00;28.00;;;;;7.92;51.10;100698.81;5015679;28;45378;-66
2022/03/23 07:36:06;;;;;;;;;52.67;44.33;;;;;7.98;51.05;100694.41;5014816;28;45481;-66
2022/03/23 07:38:33;;;;;;;;;39.67;34.00;;;;;8.05;51.00;100693.47;5015852;28;45482;-67
2022/03/23 07:40:58;;;;;;;;;37.00;33.00;;;;;8.11;50.89;100696.97;5015628;28;45475;-66
2022/03/23 07:43:24;;;;;;;;;44.33;32.33;;;;;8.15;50.95;100696.09;5014068;28;45428;-66
2022/03/23 07:45:50;;;;;;;;;42.33;33.00;;;;;8.21;50.64;100696.06;5014926;28;46105;-63
2022/03/23 07:48:20;;;;;;;;;35.67;32.33;;;;;8.22;50.74;100698.66;5016088;28;45390;-61
2022/03/23 07:50:45;;;;;;;;;36.00;32.00;;;;;8.24;50.87;100696.91;5015198;28;45250;-67
2022/03/23 07:53:11;;;;;;;;;34.67;34.33;;;;;8.25;51.01;100695.16;5015738;28;45383;-60
2022/03/23 07:55:37;;;;;;;;;44.33;34.00;;;;;8.31;50.54;100700.38;5015515;28;45562;-61
2022/03/23 07:58:02;;;;;;;;;47.67;39.00;;;;;8.35;50.67;100705.66;5014908;28;45466;-61
2022/03/23 08:00:28;;;;;;;;;32.00;28.33;;;;;8.37;50.94;100695.13;5016062;28;45343;-61
2022/03/23 08:02:54;;;;;;;;;49.00;37.33;;;;;8.44;50.61;100694.19;5014724;28;45636;-61
2022/03/23 08:05:19;;;;;;;;;44.33;36.33;;;;;8.52;50.46;100694.16;5015293;28;46474;-61
2022/03/23 08:07:45;;;;;;;;;46.00;36.67;;;;;8.59;50.38;100688.84;5014495;28;45499;-61
2022/03/23 08:10:11;;;;;;;;;35.33;32.33;;;;;8.67;50.28;100688.78;5013943;28;45534;-61
2022/03/23 08:12:36;;;;;;;;;42.33;36.00;;;;;8.73;50.46;100691.34;4999568;28;45469;-61
2022/03/23 08:15:02;;;;;;;;;38.67;36.33;;;;;8.79;50.30;100693.94;5011000;28;46129;-61
2022/03/23 08:17:28;;;;;;;;;36.50;34.00;;;;;8.84;50.09;100691.28;5014238;28;45449;-61
2022/03/23 08:22:37;;;;;;;;;36.67;34.00;;;;;8.99;49.70;100699.94;5014647;28;45438;-61
2022/03/23 08:25:03;;;;;;;;;45.33;39.33;;;;;9.04;49.95;100689.38;5015110;28;45450;-61
2022/03/23 08:27:29;;;;;;;;;40.33;33.67;;;;;9.09;50.05;100683.16;5013181;28;45485;-61
2022/03/23 08:29:54;;;;;;;;;41.00;34.67;;;;;9.16;49.70;100683.13;5015217;28;45564;-61
2022/03/23 08:32:22;;;;;;;;;37.67;32.33;;;;;9.20;49.88;100669.06;5012656;28;45455;-61
2022/03/23 08:34:51;;;;;;;;;44.67;34.00;;;;;9.28;49.70;100675.97;5015520;28;46254;-61
2022/03/23 08:37:17;;;;;;;;;33.00;31.33;;;;;9.33;49.35;100674.19;5013884;28;45237;-61
2022/03/23 08:39:42;;;;;;;;;39.00;32.00;;;;;9.41;49.56;100674.97;5014637;28;45446;-61
2022/03/23 08:42:08;;;;;;;;;34.00;30.33;;;;;9.50;49.31;100668.72;5014284;28;45390;-61
2022/03/23 08:44:33;;;;;;;;;37.00;34.00;;;;;9.58;49.08;100676.53;5014279;28;46459;-62
2022/03/23 08:46:59;;;;;;;;;46.00;35.67;;;;;9.62;49.10;100670.34;5013539;28;45417;-61
2022/03/23 08:49:24;;;;;;;;;40.00;32.67;;;;;9.69;48.87;100664.13;5014769;28;45419;-61
2022/03/23 08:51:50;;;;;;;;;37.67;33.67;;;;;9.76;48.85;100660.53;5013549;28;45552;-62
2022/03/23 08:54:15;;;;;;;;;39.00;33.67;;;;;9.83;48.58;100662.19;5015010;28;46312;-62
2022/03/23 08:56:41;;;;;;;;;45.33;36.33;;;;;9.90;48.56;100663.84;5014572;28;45497;-62
2022/03/23 08:59:06;;;;;;;;;31.67;30.33;;;;;9.93;48.39;100649.78;5015133;28;45545;-61
2022/03/23 09:01:32;;;;;;;;;41.00;35.00;;;;;9.97;48.33;100649.72;5014385;28;45547;-62
2022/03/23 09:04:04;;;;;;;;;37.33;33.67;;;;;10.04;48.35;100646.13;4996547;28;48248;-62
2022/03/23 09:06:29;;;;;;;;;42.33;35.67;;;;;10.12;48.13;100636.34;5013967;28;45367;-61
2022/03/23 09:08:55;;;;;;;;;35.33;31.33;;;;;10.21;47.72;100634.50;5014859;28;45399;-61
2022/03/23 09:11:22;;;;;;;;;33.33;33.00;;;;;10.28;47.57;100633.50;5014012;28;45528;-62
2022/03/23 09:13:48;;;;;;;;;30.33;29.00;;;;;10.35;47.21;100625.50;5014561;28;46326;-62
2022/03/23 09:16:14;;;;;;;;;35.33;32.33;;;;;10.42;46.99;100627.13;5010308;28;45487;-62
2022/03/23 09:18:40;;;;;;;;;27.67;27.00;;;;;10.51;46.76;100623.50;5014673;28;45379;-62
2022/03/23 09:21:05;;;;;;;;;34.33;28.00;;;;;10.58;46.65;100618.97;5013270;28;45215;-62
2022/03/23 09:23:31;;;;;;;;;38.67;33.33;;;;;10.64;46.63;100616.25;5014264;28;45604;-61
2022/03/23 09:25:56;;;;;;;;;27.67;21.67;;;;;10.72;46.31;100606.47;5014207;28;45244;-62
2022/03/23 09:28:22;;;;;;;;;29.00;28.67;;;;;10.79;46.42;100608.94;5014329;28;45245;-62
2022/03/23 09:30:48;;;;;;;;;33.33;30.00;;;;;10.87;46.09;100605.31;5028955;28;45389;-62
2022/03/23 09:33:13;;;;;;;;;34.33;31.00;;;;;10.95;45.85;100603.41;5011543;28;46089;-63
2022/03/23 09:35:39;;;;;;;;;39.67;33.67;;;;;11.01;45.65;100605.94;5013726;28;45385;-63
2022/03/23 09:38:04;;;;;;;;;35.00;32.00;;;;;11.06;45.89;100601.47;5014310;28;45425;-62
2022/03/23 09:40:31;;;;;;;;;37.67;35.00;;;;;11.11;45.44;100607.50;5012604;28;45553;-63
2022/03/23 09:43:19;;;;;;;;;31.67;31.00;;;;;11.17;45.53;100600.34;5013103;28;45464;-62
2022/03/23 09:45:48;;;;;;;;;31.00;25.67;;;;;11.25;45.41;100600.19;5001217;28;45361;-62
2022/03/23 09:48:22;;;;;;;;;31.67;28.67;;;;;11.34;45.20;100599.16;5014211;28;45419;-62
2022/03/23 09:50:52;;;;;;;;;29.67;27.33;;;;;11.41;45.30;100604.28;4992977;28;45495;-63
2022/03/23 09:53:19;;;;;;;;;31.00;29.00;;;;;11.48;45.02;100597.13;5012036;28;46490;-63
2022/03/23 09:55:45;;;;;;;;;30.00;27.00;;;;;11.57;44.41;100590.75;5013821;28;45527;-62
2022/03/23 09:58:12;;;;;;;;;30.00;28.67;;;;;11.65;44.53;100587.06;5014234;28;45244;-63
2022/03/23 10:00:40;;;;;;;;;33.67;30.67;;;;;11.69;44.80;100590.53;5013463;28;45347;-62
2022/03/23 10:03:11;;;;;;;;;28.33;27.33;;;;;11.73;44.72;100579.84;5013648;28;45414;-63
2022/03/23 10:06:08;;;;;;;;;35.00;29.33;;;;;11.78;44.20;100591.22;5013351;28;45434;-61
2022/03/23 10:09:02;;;;;;;;;28.00;26.00;;;;;11.83;43.93;100584.06;5014232;28;45394;-62
2022/03/23 10:12:21;;;;;;;;;32.00;30.33;;;;;11.89;43.82;100572.50;5012425;28;45503;-62
2022/03/23 10:15:23;;;;;;;;;30.33;28.67;;;;;11.92;43.89;100564.47;4982989;28;46342;-62
2022/03/23 10:18:31;;;;;;;;;24.00;24.00;;;;;12.00;43.73;100562.56;5012614;28;45350;-62
2022/03/23 10:20:56;;;;;;;;;32.33;28.33;;;;;12.10;44.02;100552.63;4984059;28;45508;-63
2022/03/23 10:23:22;;;;;;;;;30.67;29.00;;;;;12.19;43.37;100549.78;5013124;28;45699;-63
2022/03/23 10:25:47;;;;;;;;;26.67;25.00;;;;;12.26;43.51;100543.41;5012596;28;46162;-64
2022/03/23 10:28:15;;;;;;;;;34.33;28.00;;;;;12.35;43.41;100542.34;5013292;28;45514;-64
2022/03/23 10:30:44;;;;;;;;;26.00;23.67;;;;;12.44;43.06;100535.03;5013293;28;45397;-62
2022/03/23 10:33:24;;;;;;;;;27.67;27.67;;;;;12.52;42.57;100534.84;5012144;28;45518;-62
2022/03/23 10:35:51;;;;;;;;;29.33;27.67;;;;;12.56;42.42;100533.88;5012221;28;45365;-62
2022/03/23 10:38:22;;;;;;;;;33.00;30.67;;;;;12.61;41.94;100531.97;5013858;28;45497;-63
2022/03/23 10:40:50;;;;;;;;;31.00;27.67;;;;;12.68;42.08;100528.25;5012912;28;45481;-63
2022/03/23 10:43:21;;;;;;;;;22.67;21.33;;;;;12.75;41.88;100527.16;5010962;28;45406;-62
2022/03/23 10:45:47;;;;;;;;;26.00;25.33;;;;;12.82;42.55;100522.59;5012928;28;46821;-63
2022/03/23 10:48:19;;;;;;;;;38.00;29.67;;;;;12.88;42.29;100518.03;5013312;28;45571;-63
2022/03/23 10:50:58;;;;;;;;;29.33;26.33;;;;;12.96;42.60;100515.16;5012274;28;45422;-63
2022/03/23 10:53:32;;;;;;;;;35.00;30.00;;;;;13.00;41.30;100515.94;5013167;28;45549;-64
2022/03/23 10:55:59;;;;;;;;;32.67;30.00;;;;;13.02;41.51;100506.19;5012297;28;45559;-63
2022/03/23 10:58:25;;;;;;;;;30.67;27.67;;;;;13.07;41.14;100505.13;5011346;28;45399;-63
2022/03/23 11:00:57;;;;;;;;;28.00;26.67;;;;;13.14;41.55;100500.53;5012837;28;45536;-63
2022/03/23 11:03:47;;;;;;;;;28.00;27.00;;;;;13.21;41.27;100497.72;4998009;28;45576;-64
2022/03/23 11:06:17;;;;;;;;;35.67;31.33;;;;;13.32;40.64;100499.16;5013181;28;46450;-63
2022/03/23 11:08:44;;;;;;;;;40.67;32.00;;;;;13.38;40.48;100493.69;5016247;28;45408;-63
2022/03/23 11:16:48;;;;;;;;;31.67;28.33;;;;;13.50;39.91;100477.44;5014686;28;45576;-63
2022/03/23 11:19:18;;;;;;;;;33.33;29.67;;;;;13.53;39.99;100470.25;5015789;28;45419;-64
2022/03/23 11:21:59;;;;;;;;;33.67;30.00;;;;;13.63;40.14;100474.34;5015428;28;45426;-64
2022/03/23 11:24:29;;;;;;;;;29.00;27.00;;;;;13.71;39.29;100465.31;4997744;28;45572;-64
2022/03/23 11:26:55;;;;;;;;;27.67;27.33;;;;;13.77;39.83;100465.09;5015568;28;45433;-64
2022/03/23 11:29:22;;;;;;;;;34.67;30.67;;;;;13.83;39.55;100444.56;5015997;28;45243;-63
2022/03/23 11:31:48;;;;;;;;;24.00;23.33;;;;;13.93;39.77;100451.28;5015457;28;45350;-64
2022/03/23 11:34:22;;;;;;;;;30.33;28.67;;;;;14.01;38.66;100447.53;5015581;28;45341;-64
2022/03/23 11:36:50;;;;;;;;;34.67;31.33;;;;;14.08;38.86;100444.63;5014931;28;45976;-64